Accueil
METAR-TAF:

METAR-TAF

Aéroports :

Aéroport de Milan-Linate

Milan, Italie

latitude: 45-26N, longitude: 009-17E, altitude: 107 m

Observation

Le bulletin a été fait il y a 29 minutes, à 18:50 UTC
Vent 4 kt de sud/sud-est, variant entre est/sud-est et sud
Température 28°C
Humidité 45%
Pression 1017 hPa
Visibilité 10 km ou plus
pas de nuages en-dessous de 1500 mètres et pas de cumulonimbus.

METAR: LIML 201850Z 16004KT 120V180 CAVOK 28/15 Q1017 NOSIG

Heure: 21:19 (19:19 UTC)

Prévision

Le bulletin a été fait il y a 2 heures et 19 minutes, à 17:00 UTC
Prévision valable du 20 à 18 UTC au 21 à 18 UTC
Vent 57 kt de sud/sud-est
Visibilité 10 km ou plus
Nuages épars à une hauteur de 4000 ft

TAF: LIML 201700Z 2018/2118 15057KT 9999 SCT040

Observations et prévisions météorologiques de plus de 4000 aéroports (messages METAR et TAF).

Les stations disponibles sont représentées par des disques jaunes et rouges sur la carte.

Passer la souris dessus pour voir le nom de la station.

Cliquer dessus pour voir les observations et prévisions météorologiques.

Pour changer de carte: cliquez sur les boutons verts avec une croix noire pour zoomer, sur le bouton vert avec un tiret pour effectuer un zoom arrière, ou sur les flèches vertes pour les cartes adjacentes.


METAR-TAF: